Time;durP1;ratioP1;P1;durP2;ratioP2;P2;SDS_P1;SDS_P2;PMS_P1;PMS_P2;Temp;Humidity;BMP_temperature;BMP_pressure;BME280_temperature;BME280_humidity;BME280_pressure;Samples;Min_cycle;Max_cycle;Signal;HPM_P1;HPM_P2
2023/12/26 06:02:07;;;;;;;5.25;1.48;;;8.10;75.80;;;;;;4132357;23;20078;-75
2023/12/26 06:04:09;;;;;;;6.88;1.73;;;8.10;76.00;;;;;;4117816;28;20110;-76
2023/12/26 06:06:11;;;;;;;6.53;1.50;;;8.10;76.10;;;;;;4118391;28;20448;-75
2023/12/26 06:08:13;;;;;;;7.88;1.67;;;8.10;76.10;;;;;;4117866;28;20098;-79
2023/12/26 06:10:15;;;;;;;4.63;1.40;;;8.10;76.10;;;;;;4117496;28;20050;-79
2023/12/26 06:12:17;;;;;;;7.43;1.30;;;8.10;76.10;;;;;;4117828;28;20090;-77
2023/12/26 06:14:20;;;;;;;5.82;1.60;;;8.10;76.20;;;;;;4117923;28;20121;-77
2023/12/26 06:16:21;;;;;;;5.47;1.30;;;8.00;76.10;;;;;;4114620;28;20059;-78
2023/12/26 06:18:25;;;;;;;5.00;1.50;;;8.00;76.30;;;;;;4114576;28;20531;-78
2023/12/26 06:20:27;;;;;;;4.03;1.38;;;8.00;76.30;;;;;;4115191;28;20428;-74
2023/12/26 06:22:29;;;;;;;4.80;1.50;;;8.00;76.40;;;;;;4117288;28;20090;-78
2023/12/26 06:24:30;;;;;;;8.35;1.90;;;8.00;76.40;;;;;;4114355;28;20055;-76
2023/12/26 06:26:33;;;;;;;5.25;1.50;;;8.00;76.40;;;;;;4105168;28;20055;-77
2023/12/26 06:28:34;;;;;;;6.28;1.60;;;8.00;76.50;;;;;;4105277;28;20043;-76
2023/12/26 06:30:36;;;;;;;4.82;1.70;;;8.00;76.50;;;;;;4117026;28;20043;-75
2023/12/26 06:32:38;;;;;;;5.63;1.58;;;8.00;76.60;;;;;;4117690;28;20047;-77
2023/12/26 06:34:41;;;;;;;9.70;1.60;;;8.00;76.70;;;;;;4117127;28;20047;-78
2023/12/26 06:36:43;;;;;;;7.05;1.42;;;8.00;76.50;;;;;;4101376;29;20051;-77
2023/12/26 06:38:45;;;;;;;5.38;1.50;;;8.00;76.50;;;;;;4108488;28;20050;-78
2023/12/26 06:40:46;;;;;;;5.55;1.60;;;8.00;76.50;;;;;;4117332;28;20043;-79
2023/12/26 06:42:48;;;;;;;4.65;1.40;;;8.00;76.60;;;;;;4117663;28;20094;-80
2023/12/26 06:44:49;;;;;;;6.20;1.65;;;8.00;76.60;;;;;;4102052;28;20047;-78
2023/12/26 06:46:51;;;;;;;5.30;1.65;;;8.00;76.70;;;;;;4117382;28;20051;-79
2023/12/26 06:48:53;;;;;;;4.38;1.33;;;8.00;76.70;;;;;;4117172;28;20110;-77
2023/12/26 06:50:56;;;;;;;4.10;1.70;;;8.00;76.80;;;;;;4117915;28;20110;-77
2023/12/26 06:52:58;;;;;;;8.43;1.92;;;8.00;77.60;;;;;;4116737;28;20437;-77
2023/12/26 06:55:00;;;;;;;5.57;1.60;;;8.00;76.80;;;;;;4109451;28;20051;-78
2023/12/26 06:57:07;;;;;;;5.15;1.80;;;7.90;76.60;;;;;;4113743;28;20484;-77
2023/12/26 06:59:07;;;;;;;7.22;2.00;;;8.00;76.50;;;;;;4117028;28;20053;-77
2023/12/26 07:01:10;;;;;;;5.90;1.80;;;8.00;76.40;;;;;;4115691;28;20412;-77
2023/12/26 07:03:11;;;;;;;5.05;1.55;;;8.00;76.20;;;;;;4116604;28;20106;-79
2023/12/26 07:05:12;;;;;;;6.95;1.50;;;8.00;76.10;;;;;;4116673;28;20050;-78
2023/12/26 07:07:16;;;;;;;5.65;1.40;;;8.00;76.10;;;;;;4116494;28;20539;-80
2023/12/26 07:09:17;;;;;;;6.72;1.60;;;8.00;76.00;;;;;;4111793;28;20043;-80
2023/12/26 07:11:18;;;;;;;6.95;1.70;;;8.00;76.00;;;;;;4116732;28;20760;-78
2023/12/26 07:13:20;;;;;;;6.20;1.70;;;8.00;75.90;;;;;;4115945;28;20090;-79
2023/12/26 07:15:22;;;;;;;5.25;1.65;;;8.00;75.90;;;;;;4116457;28;20102;-79
2023/12/26 07:17:24;;;;;;;4.85;1.48;;;8.00;75.90;;;;;;4116945;28;20047;-79
2023/12/26 07:19:26;;;;;;;3.85;1.33;;;8.00;75.80;;;;;;4113204;28;20058;-79
2023/12/26 07:21:28;;;;;;;6.68;1.60;;;8.00;75.70;;;;;;4109345;28;20377;-79
2023/12/26 07:23:31;;;;;;;5.25;1.50;;;8.00;75.70;;;;;;4116971;28;20061;-79
2023/12/26 07:25:32;;;;;;;7.32;1.85;;;8.00;75.70;;;;;;4116502;28;20053;-80
2023/12/26 07:27:33;;;;;;;5.38;1.48;;;8.00;75.60;;;;;;4116722;28;20500;-80
2023/12/26 07:29:34;;;;;;;5.70;1.60;;;8.00;75.60;;;;;;4117372;28;20046;-81
2023/12/26 07:31:36;;;;;;;5.28;1.58;;;8.10;75.70;;;;;;4116338;28;20464;-79
2023/12/26 07:33:40;;;;;;;7.43;1.95;;;8.10;75.50;;;;;;4116360;28;20051;-81
2023/12/26 07:35:41;;;;;;;6.28;1.52;;;8.10;75.50;;;;;;4116274;28;20436;-80
2023/12/26 07:37:43;;;;;;;4.63;1.55;;;8.10;75.40;;;;;;4116013;28;20046;-80
2023/12/26 07:39:48;;;;;;;5.70;1.55;;;8.10;75.20;;;;;;4116834;28;20058;-80
2023/12/26 07:41:50;;;;;;;7.28;1.60;;;8.10;75.20;;;;;;4116492;28;20047;-79
2023/12/26 07:43:53;;;;;;;5.05;1.30;;;8.10;75.10;;;;;;4116606;28;20047;-79
2023/12/26 07:45:56;;;;;;;6.45;1.73;;;8.20;75.10;;;;;;4115715;28;20492;-78
2023/12/26 07:47:58;;;;;;;8.52;1.60;;;8.20;74.90;;;;;;4116064;28;20484;-78
2023/12/26 07:50:00;;;;;;;6.15;1.50;;;8.20;74.80;;;;;;4116189;28;20079;-78
2023/12/26 07:52:02;;;;;;;5.00;1.40;;;8.20;74.70;;;;;;4116203;28;20110;-78
2023/12/26 07:54:05;;;;;;;3.30;1.33;;;8.20;74.60;;;;;;4115190;28;20070;-80
2023/12/26 07:56:08;;;;;;;5.78;1.45;;;8.20;74.50;;;;;;4116235;28;20054;-78
2023/12/26 07:58:10;;;;;;;7.25;1.67;;;8.30;74.40;;;;;;4116007;28;20046;-79
2023/12/26 08:00:14;;;;;;;4.05;1.60;;;8.20;74.30;;;;;;4115862;28;20389;-78
2023/12/26 08:02:16;;;;;;;6.70;1.50;;;8.20;74.30;;;;;;4115528;28;20050;-79
2023/12/26 08:04:17;;;;;;;5.78;1.58;;;8.30;74.20;;;;;;4116296;28;20051;-77
2023/12/26 08:06:19;;;;;;;5.22;1.30;;;8.30;74.20;;;;;;4116101;28;20043;-78
2023/12/26 08:08:22;;;;;;;4.53;1.50;;;8.30;74.10;;;;;;4116229;28;20106;-78
2023/12/26 08:10:25;;;;;;;6.07;1.50;;;8.20;74.20;;;;;;4115998;28;20074;-80
2023/12/26 08:12:28;;;;;;;3.97;1.50;;;8.30;74.10;;;;;;4116243;28;20403;-79
2023/12/26 08:14:30;;;;;;;7.03;1.58;;;8.30;73.80;;;;;;4116339;28;20444;-78
2023/12/26 08:16:32;;;;;;;7.05;1.58;;;8.30;73.80;;;;;;4116282;28;20058;-79
2023/12/26 08:18:35;;;;;;;4.32;1.38;;;8.30;73.50;;;;;;4116129;28;20047;-80
2023/12/26 08:20:37;;;;;;;4.68;1.40;;;8.30;73.40;;;;;;4116243;28;20050;-80
2023/12/26 08:22:39;;;;;;;5.95;1.70;;;8.30;73.40;;;;;;4116143;28;20058;-79
2023/12/26 08:24:41;;;;;;;5.63;1.70;;;8.30;73.30;;;;;;4116318;28;20098;-79
2023/12/26 08:26:43;;;;;;;5.20;1.70;;;8.30;73.30;;;;;;4116297;28;20564;-79
2023/12/26 08:28:47;;;;;;;7.30;1.77;;;8.40;73.40;;;;;;4116242;28;20080;-76
2023/12/26 08:30:49;;;;;;;5.93;2.20;;;8.30;73.20;;;;;;4116456;28;20106;-76
2023/12/26 08:32:51;;;;;;;6.20;1.90;;;8.40;73.20;;;;;;4116437;28;20046;-76
2023/12/26 08:34:53;;;;;;;6.57;1.60;;;8.40;73.10;;;;;;4116445;28;20456;-78
2023/12/26 08:36:55;;;;;;;5.43;1.50;;;8.40;73.00;;;;;;4116259;28;20083;-79
2023/12/26 08:38:56;;;;;;;4.45;1.50;;;8.40;72.80;;;;;;4116699;28;20051;-78
2023/12/26 08:40:58;;;;;;;7.82;1.60;;;8.50;72.60;;;;;;4117033;28;20051;-77
2023/12/26 08:43:00;;;;;;;5.22;1.50;;;8.40;72.40;;;;;;4116515;28;20051;-79
2023/12/26 08:45:03;;;;;;;3.90;1.48;;;8.40;72.40;;;;;;4116352;28;20102;-80
2023/12/26 08:47:05;;;;;;;6.03;1.73;;;8.50;72.30;;;;;;4116148;28;20047;-77
2023/12/26 08:49:07;;;;;;;7.93;1.52;;;8.50;72.20;;;;;;4116194;28;20054;-79
2023/12/26 08:51:09;;;;;;;4.32;1.90;;;8.50;72.10;;;;;;4116579;28;20054;-76
2023/12/26 08:53:10;;;;;;;4.93;1.70;;;8.50;72.00;;;;;;4116159;28;20050;-78
2023/12/26 08:55:12;;;;;;;5.72;1.80;;;8.50;71.90;;;;;;4116387;28;20075;-79
2023/12/26 08:57:13;;;;;;;4.80;1.58;;;8.50;71.90;;;;;;4116927;28;20110;-79
2023/12/26 08:59:15;;;;;;;4.95;1.38;;;8.60;71.80;;;;;;4119249;28;20058;-79
2023/12/26 09:01:19;;;;;;;3.67;1.40;;;8.60;71.80;;;;;;4119090;28;20051;-79
2023/12/26 09:03:19;;;;;;;7.47;1.73;;;8.60;71.70;;;;;;4119203;28;20444;-79
2023/12/26 09:05:21;;;;;;;4.95;1.80;;;8.60;71.80;;;;;;4119069;28;20105;-79
2023/12/26 09:07:24;;;;;;;4.10;1.65;;;8.60;71.80;;;;;;4119056;28;20113;-79
2023/12/26 09:09:26;;;;;;;5.32;1.88;;;8.70;71.90;;;;;;4118877;28;20141;-78
2023/12/26 09:11:28;;;;;;;2.80;1.20;;;8.60;71.80;;;;;;4118852;28;20131;-79
2023/12/26 09:13:30;;;;;;;5.65;1.67;;;8.70;71.70;;;;;;4118807;28;20090;-78
2023/12/26 09:15:31;;;;;;;6.07;1.35;;;8.70;71.60;;;;;;4118709;28;20042;-79
2023/12/26 09:17:36;;;;;;;3.97;1.52;;;8.70;71.70;;;;;;4118685;28;20097;-79
2023/12/26 09:19:38;;;;;;;5.00;2.00;;;8.70;71.40;;;;;;4116069;28;20050;-77
2023/12/26 09:21:39;;;;;;;4.90;1.88;;;8.70;71.40;;;;;;4102671;29;20102;-79
2023/12/26 09:23:40;;;;;;;8.35;1.90;;;8.70;71.30;;;;;;4102727;29;20047;-78
2023/12/26 09:25:42;;;;;;;6.97;1.67;;;8.70;71.20;;;;;;4102676;29;20553;-78
2023/12/26 09:27:44;;;;;;;5.97;1.83;;;8.70;71.20;;;;;;4102843;29;20087;-80
2023/12/26 09:29:46;;;;;;;5.93;1.58;;;8.80;71.30;;;;;;4102659;29;20051;-78
2023/12/26 09:31:48;;;;;;;5.40;1.70;;;8.80;71.10;;;;;;4102584;29;20058;-77
2023/12/26 09:33:51;;;;;;;4.70;1.65;;;8.80;71.10;;;;;;4102903;29;20511;-77
2023/12/26 09:35:53;;;;;;;8.10;3.10;;;8.80;71.00;;;;;;4102690;28;20055;-78
2023/12/26 09:37:54;;;;;;;22.52;9.18;;;8.80;71.00;;;;;;4102671;29;20051;-79
2023/12/26 09:39:56;;;;;;;6.38;2.10;;;8.80;71.00;;;;;;4102734;29;20062;-79
2023/12/26 09:41:59;;;;;;;4.85;1.60;;;8.80;71.00;;;;;;4102572;29;20055;-79
2023/12/26 09:44:01;;;;;;;6.90;1.75;;;8.80;71.00;;;;;;4102510;29;20051;-77
2023/12/26 09:46:03;;;;;;;6.60;2.00;;;8.90;71.10;;;;;;4102406;29;20091;-78
2023/12/26 09:48:06;;;;;;;6.50;1.70;;;8.90;70.90;;;;;;4102456;29;20058;-79
2023/12/26 09:50:10;;;;;;;7.18;2.08;;;8.90;70.90;;;;;;4102354;28;20051;-79
2023/12/26 09:52:12;;;;;;;7.78;1.60;;;8.90;70.80;;;;;;4102352;29;20409;-79
2023/12/26 09:54:16;;;;;;;5.65;1.75;;;8.90;70.70;;;;;;4103475;28;20051;-79
2023/12/26 09:56:18;;;;;;;7.35;2.10;;;9.00;70.80;;;;;;4118415;28;20050;-79
2023/12/26 09:58:22;;;;;;;4.47;1.80;;;9.00;70.70;;;;;;4118158;28;20050;-79
2023/12/26 10:00:25;;;;;;;5.90;1.65;;;9.00;70.60;;;;;;4118391;28;20498;-80
2023/12/26 10:02:27;;;;;;;4.68;1.70;;;9.00;70.60;;;;;;4118256;28;20102;-79
2023/12/26 10:04:29;;;;;;;5.03;1.52;;;9.00;70.60;;;;;;4118701;28;20078;-79
2023/12/26 10:06:33;;;;;;;6.90;1.90;;;9.00;70.70;;;;;;4118234;28;20097;-79
2023/12/26 10:08:35;;;;;;;5.90;1.88;;;9.10;70.70;;;;;;4118148;28;20065;-80
2023/12/26 10:10:37;;;;;;;5.32;1.60;;;9.10;70.50;;;;;;4118731;28;20046;-79
2023/12/26 10:12:39;;;;;;;5.82;1.95;;;9.10;70.60;;;;;;4118147;28;20110;-79
2023/12/26 10:14:41;;;;;;;7.88;2.90;;;9.10;70.50;;;;;;4118377;28;20054;-79
2023/12/26 10:16:42;;;;;;;4.45;1.80;;;9.10;70.60;;;;;;4118523;28;20071;-79
2023/12/26 10:18:43;;;;;;;5.82;1.80;;;9.10;70.60;;;;;;4118161;28;20043;-78
2023/12/26 10:20:45;;;;;;;4.30;1.40;;;9.10;70.60;;;;;;4118220;28;20449;-79
2023/12/26 10:22:49;;;;;;;5.80;1.50;;;9.10;70.50;;;;;;4118225;28;20043;-79
2023/12/26 10:24:50;;;;;;;5.30;1.98;;;9.20;70.50;;;;;;4118399;28;20086;-79
2023/12/26 10:26:52;;;;;;;4.95;1.52;;;9.20;70.60;;;;;;4118043;28;20069;-79
2023/12/26 10:28:54;;;;;;;6.18;1.95;;;9.20;70.50;;;;;;4118306;28;20548;-80
2023/12/26 10:30:55;;;;;;;5.75;1.67;;;9.20;70.60;;;;;;4118450;28;20385;-79
2023/12/26 10:33:00;;;;;;;6.18;1.75;;;9.30;70.70;;;;;;4117946;28;20576;-79
2023/12/26 10:35:14;;;;;;;8.45;2.00;;;9.30;70.40;;;;;;4118373;28;20051;-79
2023/12/26 10:37:20;;;;;;;8.32;1.98;;;9.30;70.50;;;;;;4118252;28;20094;-79
2023/12/26 10:39:24;;;;;;;5.93;2.03;;;9.40;70.50;;;;;;4117668;28;20484;-79
2023/12/26 10:41:28;;;;;;;8.68;1.92;;;9.40;70.60;;;;;;4116656;28;20058;-80
2023/12/26 10:43:30;;;;;;;9.02;3.47;;;9.40;70.50;;;;;;4118355;28;20047;-79
2023/12/26 10:45:32;;;;;;;15.95;6.03;;;9.40;70.30;;;;;;4118895;28;20094;-79
2023/12/26 10:47:34;;;;;;;6.45;2.10;;;9.50;70.30;;;;;;4119106;28;20047;-77
2023/12/26 10:49:40;;;;;;;7.45;2.10;;;9.40;70.40;;;;;;4118099;28;20054;-80
2023/12/26 10:51:43;;;;;;;7.22;2.05;;;9.40;70.40;;;;;;4117959;28;20051;-78
2023/12/26 10:53:50;;;;;;;5.75;2.25;;;9.50;70.30;;;;;;4117463;28;20389;-81
2023/12/26 10:55:54;;;;;;;5.90;2.00;;;9.50;70.30;;;;;;4117661;28;20050;-80
2023/12/26 10:57:57;;;;;;;6.95;2.15;;;9.60;70.30;;;;;;4117485;28;20050;-79
2023/12/26 10:59:58;;;;;;;8.32;2.17;;;9.60;70.10;;;;;;4117439;28;20113;-79
2023/12/26 11:02:00;;;;;;;5.80;1.85;;;9.60;70.00;;;;;;4117397;28;20055;-79
2023/12/26 11:04:01;;;;;;;7.07;1.90;;;9.50;70.20;;;;;;4117280;28;20050;-79
2023/12/26 11:06:03;;;;;;;8.27;2.20;;;9.50;71.10;;;;;;4117419;28;20065;-81
2023/12/26 11:08:05;;;;;;;7.50;2.20;;;9.50;70.30;;;;;;4117579;28;20472;-80
2023/12/26 11:10:06;;;;;;;9.10;1.80;;;9.60;70.30;;;;;;4117420;28;20389;-80
2023/12/26 11:12:10;;;;;;;7.75;2.20;;;9.60;70.30;;;;;;4117102;28;20057;-79
2023/12/26 11:14:12;;;;;;;7.57;2.33;;;9.70;70.20;;;;;;4117023;28;20134;-78
2023/12/26 11:16:14;;;;;;;4.82;1.75;;;9.70;70.20;;;;;;4117453;28;20600;-80
2023/12/26 11:18:15;;;;;;;7.43;1.83;;;9.60;70.00;;;;;;4117043;28;20058;-80
2023/12/26 11:20:17;;;;;;;5.72;1.83;;;9.60;70.40;;;;;;4109550;28;20099;-79
2023/12/26 11:22:18;;;;;;;7.93;2.03;;;9.50;70.50;;;;;;4101089;29;20071;-80
2023/12/26 11:24:19;;;;;;;5.22;1.77;;;9.60;70.70;;;;;;4101171;29;20503;-80
2023/12/26 11:26:21;;;;;;;4.97;1.77;;;9.70;70.70;;;;;;4101014;29;20095;-79
2023/12/26 11:28:24;;;;;;;8.38;2.25;;;9.70;70.60;;;;;;4100928;29;20047;-78
2023/12/26 11:30:25;;;;;;;7.22;2.05;;;9.80;70.40;;;;;;4101159;29;20051;-79
2023/12/26 11:32:27;;;;;;;5.85;2.15;;;9.80;70.50;;;;;;4101150;29;20151;-79
2023/12/26 11:34:28;;;;;;;9.18;2.30;;;9.80;70.40;;;;;;4100845;29;20047;-79
2023/12/26 11:36:29;;;;;;;7.63;2.00;;;9.90;70.40;;;;;;4100958;29;20062;-80
2023/12/26 11:38:31;;;;;;;6.03;1.60;;;9.90;70.40;;;;;;4101080;29;20079;-77
2023/12/26 11:40:32;;;;;;;6.32;1.67;;;9.90;70.50;;;;;;4101275;29;20087;-77
2023/12/26 11:42:33;;;;;;;7.80;2.15;;;9.90;71.20;;;;;;4100935;29;20077;-79
2023/12/26 11:44:36;;;;;;;7.45;2.00;;;10.00;70.40;;;;;;4101089;29;20506;-78
2023/12/26 11:46:37;;;;;;;6.57;2.00;;;10.00;70.50;;;;;;4100749;29;20126;-79
2023/12/26 11:48:38;;;;;;;7.63;1.80;;;10.00;70.00;;;;;;4100890;29;20079;-79
2023/12/26 11:50:40;;;;;;;6.68;2.22;;;10.10;70.80;;;;;;4100809;29;20055;-79
2023/12/26 11:52:42;;;;;;;5.05;1.70;;;10.10;69.80;;;;;;4100922;29;20094;-78
2023/12/26 11:54:43;;;;;;;3.78;1.70;;;10.20;69.90;;;;;;4100754;29;20085;-79
2023/12/26 11:56:44;;;;;;;6.63;1.90;;;10.10;70.10;;;;;;4100689;29;20051;-78
2023/12/26 11:58:45;;;;;;;7.00;1.90;;;10.10;70.10;;;;;;4100880;29;20540;-79
2023/12/26 12:00:48;;;;;;;5.22;1.60;;;10.10;70.20;;;;;;4100655;29;20059;-80
2023/12/26 12:02:52;;;;;;;8.02;1.80;;;10.10;70.30;;;;;;4100940;29;20199;-80
2023/12/26 12:04:53;;;;;;;6.57;1.77;;;10.10;70.30;;;;;;4100785;29;20501;-77
2023/12/26 12:07:09;;;;;;;5.95;1.60;;;10.10;70.50;;;;;;4100573;29;20058;-77
2023/12/26 12:09:18;;;;;;;6.40;1.50;;;10.20;70.80;;;;;;4100432;28;20480;-79
2023/12/26 12:11:18;;;;;;;6.63;1.73;;;10.20;70.40;;;;;;4100725;29;20055;-79
2023/12/26 12:13:19;;;;;;;6.20;1.70;;;10.20;70.80;;;;;;4100922;29;20114;-80
2023/12/26 12:15:21;;;;;;;6.28;1.70;;;10.20;70.90;;;;;;4100463;29;20063;-79
2023/12/26 12:17:23;;;;;;;10.30;3.67;;;10.10;71.30;;;;;;4100811;29;20059;-80
2023/12/26 12:19:24;;;;;;;4.80;1.23;;;10.20;71.30;;;;;;4100751;29;20075;-80
2023/12/26 12:21:37;;;;;;;4.88;1.60;;;10.10;70.90;;;;;;4100270;29;20145;-80
2023/12/26 12:23:44;;;;;;;7.45;2.30;;;10.20;71.20;;;;;;4100515;29;20413;-79
2023/12/26 12:25:45;;;;;;;7.03;2.00;;;10.20;71.30;;;;;;4100949;29;20057;-79
2023/12/26 12:28:10;;;;;;;6.03;1.90;;;10.20;71.10;;;;;;4100792;29;20138;-79
2023/12/26 12:30:16;;;;;;;3.47;1.23;;;10.20;71.40;;;;;;4100552;29;20107;-78
2023/12/26 12:32:17;;;;;;;3.78;1.17;;;10.20;71.40;;;;;;4103470;28;20497;-79
2023/12/26 12:34:21;;;;;;;4.57;1.48;;;10.20;71.50;;;;;;4103858;29;20051;-79
2023/12/26 12:36:22;;;;;;;3.50;1.13;;;10.20;71.80;;;;;;4103451;29;20059;-80
2023/12/26 12:38:23;;;;;;;4.85;1.50;;;10.10;72.60;;;;;;4103951;29;20048;-79
2023/12/26 12:40:25;;;;;;;5.70;1.60;;;10.20;72.00;;;;;;4103927;29;20198;-80
2023/12/26 12:42:28;;;;;;;5.40;1.42;;;10.20;71.90;;;;;;4103595;29;20055;-79
2023/12/26 12:44:29;;;;;;;4.15;1.40;;;10.20;72.00;;;;;;4103754;29;20138;-80
2023/12/26 12:46:31;;;;;;;5.15;1.55;;;10.20;71.90;;;;;;4104046;29;20482;-78
2023/12/26 12:48:31;;;;;;;4.95;1.35;;;10.30;71.80;;;;;;4103552;29;20107;-80
2023/12/26 12:50:34;;;;;;;4.13;1.15;;;10.30;71.90;;;;;;4103408;29;20043;-78
2023/12/26 12:52:36;;;;;;;6.32;1.42;;;10.30;71.80;;;;;;4103526;29;20481;-81
2023/12/26 12:54:37;;;;;;;4.13;1.48;;;10.30;71.70;;;;;;4103447;29;20126;-80
2023/12/26 12:56:37;;;;;;;4.97;1.13;;;10.50;71.50;;;;;;4103363;29;20047;-77
2023/12/26 12:58:39;;;;;;;4.72;1.10;;;10.70;70.70;;;;;;4103186;29;20047;-80
2023/12/26 13:00:40;;;;;;;3.90;1.42;;;10.60;70.60;;;;;;4103282;29;20055;-79
2023/12/26 13:02:41;;;;;;;4.07;1.20;;;10.50;70.90;;;;;;4103197;29;20054;-79
2023/12/26 13:04:44;;;;;;;4.32;1.10;;;10.50;71.20;;;;;;4103165;29;20462;-81
2023/12/26 13:06:46;;;;;;;3.28;1.08;;;10.40;71.40;;;;;;4103017;29;20141;-79
2023/12/26 13:08:47;;;;;;;3.95;1.08;;;10.60;71.20;;;;;;4103089;29;20052;-80
2023/12/26 13:10:49;;;;;;;3.80;1.00;;;10.70;70.80;;;;;;4103390;29;20134;-81
2023/12/26 13:12:50;;;;;;;4.45;1.50;;;10.60;70.90;;;;;;4102923;29;20055;-80
2023/12/26 13:14:51;;;;;;;5.88;1.38;;;10.60;71.30;;;;;;4103110;29;20043;-81
2023/12/26 13:16:53;;;;;;;2.85;0.90;;;10.50;71.50;;;;;;4103104;29;20464;-80
2023/12/26 13:18:54;;;;;;;3.10;0.88;;;10.50;71.80;;;;;;4103102;29;20390;-81
2023/12/26 13:20:55;;;;;;;4.35;1.00;;;10.40;72.10;;;;;;4102577;28;20096;-80
2023/12/26 13:22:59;;;;;;;2.30;0.85;;;10.40;72.10;;;;;;4103109;29;20485;-79
2023/12/26 13:24:59;;;;;;;2.63;0.90;;;10.40;72.10;;;;;;4103085;29;20047;-80
2023/12/26 13:27:00;;;;;;;4.63;1.45;;;10.50;72.40;;;;;;4102863;29;20111;-79
2023/12/26 13:29:02;;;;;;;4.97;1.13;;;10.40;72.10;;;;;;4103208;29;20047;-78
2023/12/26 13:31:03;;;;;;;5.85;1.50;;;10.50;72.20;;;;;;4103008;29;20055;-78
2023/12/26 13:33:04;;;;;;;4.25;1.52;;;10.60;71.60;;;;;;4102897;29;20501;-80
2023/12/26 13:35:06;;;;;;;4.72;1.73;;;10.50;71.70;;;;;;4103043;29;20138;-79
2023/12/26 13:37:07;;;;;;;4.28;0.90;;;10.50;72.00;;;;;;4102551;29;20102;-80
2023/12/26 13:39:10;;;;;;;3.92;1.30;;;10.50;72.10;;;;;;4102529;29;20043;-80
2023/12/26 13:41:12;;;;;;;4.63;1.20;;;10.40;72.20;;;;;;4103219;29;20110;-78
2023/12/26 13:43:13;;;;;;;3.90;0.93;;;10.50;72.30;;;;;;4102263;28;20444;-79
2023/12/26 13:45:13;;;;;;;4.20;1.10;;;10.40;72.00;;;;;;4102658;29;20047;-79
2023/12/26 13:47:15;;;;;;;3.80;1.00;;;10.40;72.60;;;;;;4102988;29;20047;-80
2023/12/26 13:49:16;;;;;;;10.88;4.90;;;10.40;72.90;;;;;;4102952;29;20051;-81
2023/12/26 13:51:17;;;;;;;4.15;1.20;;;10.30;73.00;;;;;;4102533;29;20048;-80
2023/12/26 13:53:19;;;;;;;3.80;1.30;;;10.30;73.10;;;;;;4102722;29;20051;-79
2023/12/26 13:55:22;;;;;;;4.15;1.00;;;10.30;73.40;;;;;;4102582;29;20051;-80
2023/12/26 13:57:23;;;;;;;3.55;1.17;;;10.20;73.30;;;;;;4102610;29;20413;-78
2023/12/26 13:59:25;;;;;;;5.00;1.10;;;10.30;73.80;;;;;;4102138;29;20059;-77
2023/12/26 14:01:26;;;;;;;2.35;0.95;;;10.20;74.00;;;;;;4102600;29;20511;-80
2023/12/26 14:03:29;;;;;;;2.97;1.27;;;10.20;74.00;;;;;;4102525;29;20101;-79
2023/12/26 14:05:30;;;;;;;4.45;1.30;;;10.20;74.30;;;;;;4102112;29;20082;-78
2023/12/26 14:07:31;;;;;;;4.60;1.17;;;10.20;74.30;;;;;;4102748;29;20049;-78
2023/12/26 14:09:33;;;;;;;3.60;1.20;;;10.20;74.40;;;;;;4102772;29;20134;-79
2023/12/26 14:11:36;;;;;;;4.40;1.00;;;10.10;74.30;;;;;;4102131;29;20055;-79
2023/12/26 14:13:37;;;;;;;3.55;1.00;;;10.20;74.40;;;;;;4102766;29;20119;-80
2023/12/26 14:15:39;;;;;;;3.25;1.10;;;10.20;74.40;;;;;;4102337;29;20059;-79
2023/12/26 14:17:40;;;;;;;4.07;1.30;;;10.20;74.40;;;;;;4102002;29;20091;-81
2023/12/26 14:19:42;;;;;;;5.65;1.40;;;10.10;74.70;;;;;;4102130;29;20055;-78
2023/12/26 14:21:44;;;;;;;3.72;1.23;;;10.10;74.80;;;;;;4102433;28;20047;-79
2023/12/26 14:23:44;;;;;;;4.78;1.23;;;10.00;74.90;;;;;;4101898;29;20477;-79
2023/12/26 14:25:46;;;;;;;4.00;1.25;;;10.00;75.10;;;;;;4102146;29;20047;-79
2023/12/26 14:27:50;;;;;;;3.80;1.25;;;10.00;75.30;;;;;;4102008;29;20051;-80
2023/12/26 14:29:50;;;;;;;4.60;1.20;;;9.90;75.40;;;;;;4101935;29;20051;-80
2023/12/26 14:31:52;;;;;;;4.18;1.50;;;9.90;75.70;;;;;;4102037;29;20511;-80
2023/12/26 14:33:54;;;;;;;7.03;1.42;;;9.90;76.10;;;;;;4101796;29;20051;-79
2023/12/26 14:35:55;;;;;;;6.40;1.48;;;9.80;76.30;;;;;;4101958;29;20123;-79
2023/12/26 14:37:57;;;;;;;5.82;1.60;;;9.80;76.20;;;;;;4102173;29;20059;-79
2023/12/26 14:39:58;;;;;;;5.57;1.55;;;9.80;76.40;;;;;;4101941;29;20051;-80
2023/12/26 14:41:59;;;;;;;4.78;1.42;;;9.80;76.50;;;;;;4101766;29;20134;-80
2023/12/26 14:44:04;;;;;;;4.40;1.35;;;9.80;76.70;;;;;;4101934;29;20058;-78
2023/12/26 14:46:06;;;;;;;4.35;1.50;;;9.80;76.70;;;;;;4101903;29;20118;-80
2023/12/26 14:48:08;;;;;;;7.57;1.60;;;9.70;76.70;;;;;;4101749;29;20457;-78
2023/12/26 14:50:09;;;;;;;6.20;1.48;;;9.70;76.90;;;;;;4101845;29;20051;-78
2023/12/26 14:52:11;;;;;;;4.45;1.40;;;9.70;76.90;;;;;;4101767;29;20051;-80
2023/12/26 14:54:13;;;;;;;7.03;1.35;;;9.70;76.70;;;;;;4101573;28;20110;-81
2023/12/26 14:56:15;;;;;;;5.40;1.60;;;9.80;76.40;;;;;;4101653;29;20083;-80
2023/12/26 14:58:17;;;;;;;5.20;1.40;;;9.90;76.00;;;;;;4101578;29;20055;-79
2023/12/26 15:00:20;;;;;;;4.65;1.35;;;9.90;75.70;;;;;;4101523;29;20077;-80
2023/12/26 15:02:24;;;;;;;4.57;1.52;;;9.90;75.60;;;;;;4101156;29;20493;-77
2023/12/26 15:04:27;;;;;;;3.88;1.50;;;9.90;75.40;;;;;;4101648;29;20111;-81
2023/12/26 15:06:28;;;;;;;5.97;1.63;;;9.90;75.50;;;;;;4101553;29;20114;-78
2023/12/26 15:08:30;;;;;;;4.68;2.20;;;9.90;75.50;;;;;;4101407;29;20047;-81
2023/12/26 15:10:32;;;;;;;6.55;2.70;;;9.90;75.60;;;;;;4101588;29;20059;-80
2023/12/26 15:12:34;;;;;;;6.28;2.22;;;9.90;75.50;;;;;;4101664;29;20062;-78
2023/12/26 15:14:35;;;;;;;8.50;3.45;;;9.90;75.60;;;;;;4101322;29;20401;-80
2023/12/26 15:16:38;;;;;;;6.15;2.08;;;10.00;75.60;;;;;;4101711;29;20098;-80
2023/12/26 15:18:40;;;;;;;7.10;1.85;;;10.00;75.60;;;;;;4101475;29;20449;-79
2023/12/26 15:20:42;;;;;;;4.50;1.60;;;9.90;75.70;;;;;;4100740;28;20477;-80
2023/12/26 15:22:44;;;;;;;5.90;1.77;;;9.90;75.80;;;;;;4101438;29;20075;-79
2023/12/26 15:24:46;;;;;;;4.60;1.60;;;9.90;75.90;;;;;;4101637;29;20083;-78
2023/12/26 15:26:48;;;;;;;4.55;1.45;;;9.80;75.90;;;;;;4101259;29;20051;-80
2023/12/26 15:28:50;;;;;;;3.30;1.30;;;9.80;76.00;;;;;;4101195;29;20050;-80
2023/12/26 15:30:52;;;;;;;4.70;1.60;;;9.80;75.90;;;;;;4101449;29;20051;-79
2023/12/26 15:32:54;;;;;;;7.28;2.42;;;9.90;75.80;;;;;;4101100;29;20102;-80
2023/12/26 15:34:57;;;;;;;4.80;1.85;;;9.90;75.80;;;;;;4101397;29;20107;-80
2023/12/26 15:36:58;;;;;;;7.88;2.38;;;9.90;75.60;;;;;;4101386;29;20047;-80
2023/12/26 15:38:59;;;;;;;6.10;2.05;;;9.90;75.60;;;;;;4100826;29;20485;-81
2023/12/26 15:41:01;;;;;;;6.45;1.60;;;9.90;75.50;;;;;;4100979;29;20111;-79
2023/12/26 15:43:03;;;;;;;7.60;1.70;;;9.90;75.40;;;;;;4101198;29;20106;-78
2023/12/26 15:45:06;;;;;;;7.85;1.77;;;9.90;75.40;;;;;;4100822;29;20109;-81
2023/12/26 15:47:08;;;;;;;6.07;2.03;;;9.90;75.30;;;;;;4100918;29;20565;-79
2023/12/26 15:49:11;;;;;;;5.45;1.77;;;9.90;75.30;;;;;;4104882;28;20118;-79
2023/12/26 15:51:14;;;;;;;6.15;1.80;;;9.90;75.20;;;;;;4116391;28;20106;-80
2023/12/26 15:53:16;;;;;;;6.38;1.80;;;9.90;75.10;;;;;;4118351;28;20408;-83
2023/12/26 15:55:20;;;;;;;5.68;1.77;;;9.90;75.20;;;;;;4117166;28;20059;-78
2023/12/26 15:57:22;;;;;;;5.32;1.95;;;9.90;75.20;;;;;;4116694;28;20047;-78
2023/12/26 15:59:24;;;;;;;5.35;1.90;;;9.90;75.50;;;;;;4116517;28;20087;-80
2023/12/26 16:01:26;;;;;;;6.07;1.90;;;9.90;75.80;;;;;;4116773;28;20059;-78
2023/12/26 16:03:27;;;;;;;6.35;2.55;;;9.80;75.70;;;;;;4116693;28;20055;-79
2023/12/26 16:05:30;;;;;;;8.50;2.08;;;9.80;76.20;;;;;;4108906;28;20137;-80
2023/12/26 16:07:32;;;;;;;5.30;1.90;;;9.70;76.40;;;;;;4113545;28;20080;-78
2023/12/26 16:09:33;;;;;;;5.07;1.70;;;9.70;76.60;;;;;;4107564;28;20054;-79
2023/12/26 16:11:35;;;;;;;6.15;1.88;;;9.70;76.70;;;;;;4113340;28;20073;-80
2023/12/26 16:13:37;;;;;;;8.32;1.55;;;9.70;77.00;;;;;;4112588;28;20047;-79
2023/12/26 16:15:39;;;;;;;6.15;1.60;;;9.70;77.00;;;;;;4112913;28;20106;-81
2023/12/26 16:17:40;;;;;;;6.65;2.33;;;9.60;77.10;;;;;;4113603;28;20631;-79
2023/12/26 16:19:42;;;;;;;6.22;1.67;;;9.60;77.30;;;;;;4113285;28;20114;-81
2023/12/26 16:21:45;;;;;;;4.85;1.90;;;9.50;77.10;;;;;;4113626;28;20457;-79
2023/12/26 16:23:47;;;;;;;6.18;2.08;;;9.50;77.20;;;;;;4113540;28;20504;-78
2023/12/26 16:25:49;;;;;;;6.55;2.10;;;9.50;77.30;;;;;;4113440;28;20106;-79
2023/12/26 16:27:50;;;;;;;8.38;1.90;;;9.60;77.20;;;;;;4114510;28;20102;-79
2023/12/26 16:29:52;;;;;;;7.32;1.70;;;9.50;76.90;;;;;;4117686;28;20043;-79
2023/12/26 16:31:54;;;;;;;5.28;1.52;;;9.60;76.90;;;;;;4119099;28;20046;-77
2023/12/26 16:33:55;;;;;;;7.93;1.80;;;9.60;76.90;;;;;;4122054;28;20058;-78
2023/12/26 16:35:58;;;;;;;5.07;1.85;;;9.60;76.90;;;;;;4122095;28;20480;-77
2023/12/26 16:38:01;;;;;;;5.05;1.70;;;9.60;76.80;;;;;;4121556;28;20094;-80
2023/12/26 16:40:04;;;;;;;5.57;1.80;;;9.60;76.70;;;;;;4119198;28;20078;-77
2023/12/26 16:42:08;;;;;;;6.80;1.80;;;9.60;76.90;;;;;;4115117;28;20480;-80
2023/12/26 16:44:10;;;;;;;6.22;1.85;;;9.60;76.80;;;;;;4114100;28;20059;-79